AXM8119 WMKK-WMKL
Flight info
| Callsign | AXM8119 |
|---|---|
| Flight time | 0h 46m |
| Altitude | 30000 |
| Route | ATIMU1F/33 ATIMU Y506 VPG W525 KAPKO KAPKO1E |
| Aircraft | A321/M-SDE3FGHIRWY/LB1 |
Departure
| Time | 2026-04-15 14:55 |
|---|---|
| Airport | Kuala Lumpur International Airport (WMKK) |
Arrival
| Time | 2026-04-15 15:41 |
|---|---|
| Airport | Langkawi International Airport (WMKL) |
| Time | Latitude | Longitude | Altitude | Speed | Heading |
|---|---|---|---|---|---|
| 2026-04-15 14:25 | 2.74242 | 101.68786 | 33 ft | 0 kts | 325° |
| 2026-04-15 14:40 | 2.74241 | 101.68787 | 34 ft | 1 kts | 325° |
| 2026-04-15 14:41 | 2.74228 | 101.68796 | 34 ft | 2 kts | 324° |
| 2026-04-15 14:41 | 2.74220 | 101.68801 | 34 ft | 0 kts | 325° |
| 2026-04-15 14:41 | 2.74211 | 101.68812 | 34 ft | 2 kts | 279° |
| 2026-04-15 14:41 | 2.74213 | 101.68824 | 34 ft | 0 kts | 239° |
| 2026-04-15 14:42 | 2.74217 | 101.68829 | 34 ft | 1 kts | 233° |
| 2026-04-15 14:42 | 2.74218 | 101.68831 | 34 ft | 0 kts | 234° |
| 2026-04-15 14:44 | 2.74218 | 101.68830 | 34 ft | 0 kts | 234° |
| 2026-04-15 14:44 | 2.74212 | 101.68825 | 34 ft | 2 kts | 208° |
| 2026-04-15 14:45 | 2.74170 | 101.68813 | 35 ft | 9 kts | 197° |
| 2026-04-15 14:45 | 2.74106 | 101.68746 | 33 ft | 16 kts | 236° |
| 2026-04-15 14:45 | 2.74037 | 101.68644 | 35 ft | 18 kts | 236° |
| 2026-04-15 14:45 | 2.73964 | 101.68536 | 35 ft | 19 kts | 236° |
| 2026-04-15 14:46 | 2.73884 | 101.68418 | 35 ft | 21 kts | 236° |
| 2026-04-15 14:46 | 2.73799 | 101.68293 | 36 ft | 22 kts | 236° |
| 2026-04-15 14:46 | 2.73708 | 101.68180 | 38 ft | 19 kts | 195° |
| 2026-04-15 14:46 | 2.73590 | 101.68241 | 37 ft | 21 kts | 145° |
| 2026-04-15 14:47 | 2.73461 | 101.68327 | 35 ft | 24 kts | 147° |
| 2026-04-15 14:47 | 2.73317 | 101.68423 | 35 ft | 25 kts | 147° |
| 2026-04-15 14:47 | 2.73167 | 101.68524 | 35 ft | 26 kts | 146° |
| 2026-04-15 14:47 | 2.73018 | 101.68625 | 35 ft | 25 kts | 146° |
| 2026-04-15 14:48 | 2.72870 | 101.68723 | 35 ft | 25 kts | 146° |
| 2026-04-15 14:48 | 2.72722 | 101.68824 | 35 ft | 25 kts | 146° |
| 2026-04-15 14:48 | 2.72573 | 101.68923 | 37 ft | 25 kts | 146° |
| 2026-04-15 14:48 | 2.72425 | 101.69022 | 37 ft | 26 kts | 146° |
| 2026-04-15 14:49 | 2.72272 | 101.69125 | 35 ft | 27 kts | 146° |
| 2026-04-15 14:49 | 2.72114 | 101.69231 | 35 ft | 27 kts | 146° |
| 2026-04-15 14:49 | 2.71959 | 101.69336 | 35 ft | 26 kts | 146° |
| 2026-04-15 14:49 | 2.71813 | 101.69357 | 35 ft | 19 kts | 214° |
| 2026-04-15 14:50 | 2.71750 | 101.69379 | 35 ft | 6 kts | 160° |
| 2026-04-15 14:50 | 2.71677 | 101.69407 | 35 ft | 15 kts | 154° |
| 2026-04-15 14:50 | 2.71535 | 101.69499 | 35 ft | 32 kts | 145° |
| 2026-04-15 14:50 | 2.71349 | 101.69623 | 37 ft | 29 kts | 146° |
| 2026-04-15 14:51 | 2.71186 | 101.69730 | 38 ft | 27 kts | 147° |
| 2026-04-15 14:51 | 2.71029 | 101.69833 | 38 ft | 20 kts | 146° |
| 2026-04-15 14:51 | 2.70942 | 101.69845 | 37 ft | 5 kts | 218° |
| 2026-04-15 14:51 | 2.70939 | 101.69841 | 37 ft | 0 kts | 224° |
| 2026-04-15 14:53 | 2.70925 | 101.69826 | 37 ft | 6 kts | 233° |
| 2026-04-15 14:53 | 2.70893 | 101.69758 | 35 ft | 14 kts | 252° |
| 2026-04-15 14:54 | 2.70941 | 101.69679 | 35 ft | 15 kts | 326° |
| 2026-04-15 14:54 | 2.71093 | 101.69577 | 35 ft | 55 kts | 326° |
| 2026-04-15 14:54 | 2.71621 | 101.69223 | 35 ft | 125 kts | 326° |
| 2026-04-15 14:54 | 2.72514 | 101.68626 | 93 ft | 176 kts | 326° |
| 2026-04-15 14:55 | 2.73531 | 101.67948 | 697 ft | 173 kts | 326° |
| 2026-04-15 14:55 | 2.74559 | 101.67273 | 1061 ft | 185 kts | 327° |
| 2026-04-15 14:55 | 2.75661 | 101.66511 | 1381 ft | 201 kts | 316° |
| 2026-04-15 14:55 | 2.76352 | 101.65286 | 1784 ft | 213 kts | 284° |
| 2026-04-15 14:56 | 2.76780 | 101.63819 | 2176 ft | 228 kts | 298° |
| 2026-04-15 14:56 | 2.77864 | 101.62603 | 2507 ft | 246 kts | 329° |
| 2026-04-15 14:56 | 2.79448 | 101.61860 | 2915 ft | 261 kts | 337° |
| 2026-04-15 14:56 | 2.81054 | 101.60995 | 3558 ft | 268 kts | 326° |
| 2026-04-15 14:57 | 2.82562 | 101.59893 | 4347 ft | 269 kts | 323° |
| 2026-04-15 14:57 | 2.84036 | 101.58764 | 5117 ft | 271 kts | 322° |
| 2026-04-15 14:57 | 2.85549 | 101.57616 | 5899 ft | 274 kts | 323° |
| 2026-04-15 14:57 | 2.87075 | 101.56475 | 6681 ft | 276 kts | 323° |
| 2026-04-15 14:58 | 2.88604 | 101.55344 | 7458 ft | 278 kts | 323° |
| 2026-04-15 14:58 | 2.90164 | 101.54200 | 8236 ft | 281 kts | 323° |
| 2026-04-15 14:58 | 2.91744 | 101.53046 | 9000 ft | 283 kts | 323° |
| 2026-04-15 14:58 | 2.93317 | 101.51899 | 9740 ft | 286 kts | 323° |
| 2026-04-15 14:59 | 2.94927 | 101.50727 | 10436 ft | 291 kts | 323° |
| 2026-04-15 14:59 | 2.96608 | 101.49503 | 10813 ft | 307 kts | 323° |
| 2026-04-15 14:59 | 2.98385 | 101.48209 | 11133 ft | 324 kts | 323° |
| 2026-04-15 14:59 | 3.00216 | 101.46878 | 11663 ft | 332 kts | 322° |
| 2026-04-15 15:00 | 3.02096 | 101.45514 | 12358 ft | 335 kts | 322° |
| 2026-04-15 15:00 | 3.03968 | 101.44154 | 13019 ft | 338 kts | 322° |
| 2026-04-15 15:00 | 3.05876 | 101.42768 | 13658 ft | 342 kts | 322° |
| 2026-04-15 15:00 | 3.07819 | 101.41356 | 14289 ft | 346 kts | 322° |
| 2026-04-15 15:01 | 3.09759 | 101.39946 | 14902 ft | 350 kts | 322° |
| 2026-04-15 15:01 | 3.11738 | 101.38512 | 15510 ft | 354 kts | 322° |
| 2026-04-15 15:01 | 3.13754 | 101.37058 | 16108 ft | 358 kts | 322° |
| 2026-04-15 15:01 | 3.15776 | 101.35596 | 16688 ft | 362 kts | 322° |
| 2026-04-15 15:02 | 3.17813 | 101.34118 | 17254 ft | 366 kts | 322° |
| 2026-04-15 15:02 | 3.19874 | 101.32609 | 17812 ft | 369 kts | 322° |
| 2026-04-15 15:02 | 3.21935 | 101.31101 | 18349 ft | 373 kts | 322° |
| 2026-04-15 15:02 | 3.24039 | 101.29564 | 18879 ft | 377 kts | 322° |
| 2026-04-15 15:03 | 3.26156 | 101.28021 | 19395 ft | 380 kts | 322° |
| 2026-04-15 15:03 | 3.28311 | 101.26452 | 19907 ft | 384 kts | 322° |
| 2026-04-15 15:03 | 3.30459 | 101.24889 | 20406 ft | 387 kts | 322° |
| 2026-04-15 15:03 | 3.32647 | 101.23296 | 20901 ft | 391 kts | 322° |
| 2026-04-15 15:04 | 3.34854 | 101.21691 | 21387 ft | 394 kts | 322° |
| 2026-04-15 15:04 | 3.37062 | 101.20085 | 21860 ft | 398 kts | 322° |
| 2026-04-15 15:04 | 3.39311 | 101.18450 | 22329 ft | 401 kts | 322° |
| 2026-04-15 15:04 | 3.41568 | 101.16808 | 22790 ft | 404 kts | 322° |
| 2026-04-15 15:05 | 3.43820 | 101.15170 | 23234 ft | 407 kts | 322° |
| 2026-04-15 15:05 | 3.46112 | 101.13502 | 23675 ft | 410 kts | 323° |
| 2026-04-15 15:05 | 3.48446 | 101.11803 | 24113 ft | 413 kts | 323° |
| 2026-04-15 15:05 | 3.50766 | 101.10115 | 24512 ft | 417 kts | 323° |
| 2026-04-15 15:06 | 3.55478 | 101.06684 | 25477 ft | 419 kts | 323° |
| 2026-04-15 15:06 | 3.57828 | 101.04971 | 26044 ft | 417 kts | 323° |
| 2026-04-15 15:06 | 3.60144 | 101.03284 | 26577 ft | 416 kts | 323° |
| 2026-04-15 15:07 | 3.62485 | 101.01578 | 27104 ft | 415 kts | 323° |
| 2026-04-15 15:07 | 3.64807 | 100.99917 | 27609 ft | 415 kts | 325° |
| 2026-04-15 15:07 | 3.67248 | 100.98375 | 28107 ft | 414 kts | 329° |
| 2026-04-15 15:07 | 3.69767 | 100.97025 | 28549 ft | 415 kts | 334° |
| 2026-04-15 15:08 | 3.72385 | 100.95818 | 28941 ft | 416 kts | 336° |
| 2026-04-15 15:08 | 3.75034 | 100.94646 | 29286 ft | 419 kts | 336° |
| 2026-04-15 15:08 | 3.77709 | 100.93468 | 29583 ft | 423 kts | 336° |
| 2026-04-15 15:08 | 3.80400 | 100.92279 | 29815 ft | 425 kts | 336° |
| 2026-04-15 15:09 | 3.85807 | 100.89883 | 29841 ft | 426 kts | 336° |
| 2026-04-15 15:09 | 3.91192 | 100.87489 | 29845 ft | 426 kts | 336° |
| 2026-04-15 15:10 | 3.96595 | 100.85085 | 29845 ft | 426 kts | 336° |
| 2026-04-15 15:10 | 4.02017 | 100.82671 | 29846 ft | 426 kts | 336° |
| 2026-04-15 15:11 | 4.07387 | 100.80276 | 29846 ft | 426 kts | 336° |
| 2026-04-15 15:11 | 4.12798 | 100.77866 | 29845 ft | 426 kts | 336° |
| 2026-04-15 15:12 | 4.18188 | 100.75472 | 29846 ft | 423 kts | 336° |
| 2026-04-15 15:12 | 4.23539 | 100.73082 | 29846 ft | 423 kts | 336° |
| 2026-04-15 15:13 | 4.28883 | 100.70685 | 29845 ft | 424 kts | 336° |
| 2026-04-15 15:13 | 4.34241 | 100.68275 | 29846 ft | 423 kts | 336° |
| 2026-04-15 15:14 | 4.39614 | 100.65857 | 29846 ft | 423 kts | 336° |
| 2026-04-15 15:14 | 4.44954 | 100.63472 | 29846 ft | 423 kts | 337° |
| 2026-04-15 15:15 | 4.50337 | 100.61181 | 29846 ft | 423 kts | 337° |
| 2026-04-15 15:15 | 4.55763 | 100.58876 | 29846 ft | 423 kts | 337° |
| 2026-04-15 15:16 | 4.61151 | 100.56577 | 29846 ft | 423 kts | 337° |
| 2026-04-15 15:16 | 4.66556 | 100.54266 | 29846 ft | 423 kts | 337° |
| 2026-04-15 15:17 | 4.71951 | 100.51955 | 29846 ft | 422 kts | 337° |
| 2026-04-15 15:17 | 4.74649 | 100.50799 | 29705 ft | 423 kts | 337° |
| 2026-04-15 15:17 | 4.77337 | 100.49647 | 29455 ft | 421 kts | 337° |
| 2026-04-15 15:18 | 4.80002 | 100.48506 | 29206 ft | 419 kts | 337° |
| 2026-04-15 15:18 | 4.82665 | 100.47364 | 28936 ft | 416 kts | 336° |
| 2026-04-15 15:18 | 4.85274 | 100.46183 | 28605 ft | 414 kts | 335° |
| 2026-04-15 15:18 | 4.87904 | 100.44951 | 28168 ft | 414 kts | 334° |
| 2026-04-15 15:19 | 4.90468 | 100.43742 | 27652 ft | 415 kts | 334° |
| 2026-04-15 15:19 | 4.93077 | 100.42513 | 27084 ft | 415 kts | 334° |
| 2026-04-15 15:19 | 4.95701 | 100.41280 | 26491 ft | 415 kts | 334° |
| 2026-04-15 15:19 | 4.98299 | 100.40060 | 25893 ft | 415 kts | 334° |
| 2026-04-15 15:20 | 5.00886 | 100.38847 | 25289 ft | 415 kts | 334° |
| 2026-04-15 15:20 | 5.03503 | 100.37619 | 24676 ft | 415 kts | 334° |
| 2026-04-15 15:20 | 5.06113 | 100.36395 | 24056 ft | 415 kts | 333° |
| 2026-04-15 15:20 | 5.08697 | 100.35180 | 23519 ft | 412 kts | 333° |
| 2026-04-15 15:21 | 5.11248 | 100.33976 | 23100 ft | 406 kts | 333° |
| 2026-04-15 15:21 | 5.13780 | 100.32780 | 22675 ft | 401 kts | 333° |
| 2026-04-15 15:21 | 5.16282 | 100.31602 | 22250 ft | 397 kts | 333° |
| 2026-04-15 15:21 | 5.18777 | 100.30428 | 21825 ft | 392 kts | 333° |
| 2026-04-15 15:22 | 5.21216 | 100.29282 | 21406 ft | 388 kts | 333° |
| 2026-04-15 15:22 | 5.23637 | 100.28146 | 20988 ft | 384 kts | 333° |
| 2026-04-15 15:22 | 5.26025 | 100.27026 | 20575 ft | 380 kts | 332° |
| 2026-04-15 15:22 | 5.28401 | 100.25910 | 20164 ft | 376 kts | 332° |
| 2026-04-15 15:23 | 5.30736 | 100.24801 | 19757 ft | 373 kts | 332° |
| 2026-04-15 15:23 | 5.33087 | 100.23680 | 19371 ft | 368 kts | 331° |
| 2026-04-15 15:23 | 5.35386 | 100.22581 | 19026 ft | 371 kts | 331° |
| 2026-04-15 15:23 | 5.37693 | 100.21476 | 18680 ft | 373 kts | 332° |
| 2026-04-15 15:24 | 5.40042 | 100.20353 | 18294 ft | 371 kts | 332° |
| 2026-04-15 15:24 | 5.42360 | 100.19244 | 17888 ft | 368 kts | 332° |
| 2026-04-15 15:24 | 5.44652 | 100.18147 | 17478 ft | 365 kts | 332° |
| 2026-04-15 15:24 | 5.46908 | 100.17068 | 17066 ft | 363 kts | 332° |
| 2026-04-15 15:25 | 5.49178 | 100.15981 | 16649 ft | 360 kts | 332° |
| 2026-04-15 15:25 | 5.51430 | 100.14902 | 16231 ft | 357 kts | 332° |
| 2026-04-15 15:25 | 5.53637 | 100.13844 | 15818 ft | 355 kts | 332° |
| 2026-04-15 15:25 | 5.55854 | 100.12781 | 15400 ft | 352 kts | 332° |
| 2026-04-15 15:26 | 5.58042 | 100.11732 | 14985 ft | 349 kts | 332° |
| 2026-04-15 15:26 | 5.60220 | 100.10688 | 14570 ft | 347 kts | 332° |
| 2026-04-15 15:26 | 5.62402 | 100.09641 | 14151 ft | 344 kts | 332° |
| 2026-04-15 15:26 | 5.64541 | 100.08615 | 13740 ft | 341 kts | 332° |
| 2026-04-15 15:27 | 5.66667 | 100.07594 | 13328 ft | 339 kts | 332° |
| 2026-04-15 15:27 | 5.68787 | 100.06577 | 12914 ft | 336 kts | 332° |
| 2026-04-15 15:27 | 5.70871 | 100.05578 | 12505 ft | 333 kts | 332° |
| 2026-04-15 15:27 | 5.72933 | 100.04590 | 12101 ft | 330 kts | 332° |
| 2026-04-15 15:28 | 5.74994 | 100.03603 | 11690 ft | 328 kts | 333° |
| 2026-04-15 15:28 | 5.77060 | 100.02614 | 11262 ft | 325 kts | 333° |
| 2026-04-15 15:28 | 5.79064 | 100.01654 | 10785 ft | 323 kts | 333° |
| 2026-04-15 15:28 | 5.81097 | 100.00679 | 10328 ft | 320 kts | 333° |
| 2026-04-15 15:29 | 5.83059 | 99.99738 | 10174 ft | 306 kts | 333° |
| 2026-04-15 15:29 | 5.84910 | 99.98851 | 10088 ft | 291 kts | 333° |
| 2026-04-15 15:29 | 5.86700 | 99.97992 | 9997 ft | 277 kts | 333° |
| 2026-04-15 15:29 | 5.88425 | 99.97163 | 9639 ft | 275 kts | 333° |
| 2026-04-15 15:30 | 5.90124 | 99.96346 | 9284 ft | 272 kts | 333° |
| 2026-04-15 15:30 | 5.91834 | 99.95524 | 8933 ft | 269 kts | 333° |
| 2026-04-15 15:30 | 5.93499 | 99.94725 | 8594 ft | 267 kts | 334° |
| 2026-04-15 15:30 | 5.95103 | 99.93826 | 8239 ft | 264 kts | 323° |
| 2026-04-15 15:31 | 5.96411 | 99.92536 | 7888 ft | 262 kts | 307° |
| 2026-04-15 15:31 | 5.97409 | 99.91029 | 7552 ft | 261 kts | 303° |
| 2026-04-15 15:31 | 5.98359 | 99.89465 | 7213 ft | 259 kts | 302° |
| 2026-04-15 15:31 | 5.99286 | 99.87930 | 6881 ft | 257 kts | 302° |
| 2026-04-15 15:32 | 6.00208 | 99.86413 | 6554 ft | 256 kts | 302° |
| 2026-04-15 15:32 | 6.01136 | 99.84892 | 6227 ft | 254 kts | 303° |
| 2026-04-15 15:32 | 6.02059 | 99.83385 | 5904 ft | 253 kts | 303° |
| 2026-04-15 15:32 | 6.02979 | 99.81887 | 5585 ft | 252 kts | 303° |
| 2026-04-15 15:33 | 6.03891 | 99.80403 | 5269 ft | 251 kts | 303° |
| 2026-04-15 15:33 | 6.04811 | 99.78908 | 4951 ft | 249 kts | 303° |
| 2026-04-15 15:33 | 6.05719 | 99.77431 | 4641 ft | 248 kts | 303° |
| 2026-04-15 15:33 | 6.06629 | 99.75952 | 4334 ft | 252 kts | 303° |
| 2026-04-15 15:34 | 6.07554 | 99.74449 | 4017 ft | 253 kts | 303° |
| 2026-04-15 15:34 | 6.08468 | 99.72963 | 3707 ft | 252 kts | 303° |
| 2026-04-15 15:34 | 6.09394 | 99.71456 | 3395 ft | 252 kts | 303° |
| 2026-04-15 15:34 | 6.10296 | 99.69991 | 3200 ft | 244 kts | 303° |
| 2026-04-15 15:35 | 6.11178 | 99.68594 | 3156 ft | 228 kts | 307° |
| 2026-04-15 15:35 | 6.12207 | 99.67453 | 3088 ft | 214 kts | 321° |
| 2026-04-15 15:35 | 6.13368 | 99.66568 | 3040 ft | 209 kts | 325° |
| 2026-04-15 15:35 | 6.14530 | 99.65751 | 3050 ft | 193 kts | 326° |
| 2026-04-15 15:36 | 6.15601 | 99.65001 | 2849 ft | 183 kts | 326° |
| 2026-04-15 15:36 | 6.16614 | 99.64285 | 2679 ft | 171 kts | 326° |
| 2026-04-15 15:36 | 6.17544 | 99.63624 | 2520 ft | 159 kts | 325° |
| 2026-04-15 15:36 | 6.18508 | 99.63201 | 2274 ft | 151 kts | 1° |
| 2026-04-15 15:37 | 6.19486 | 99.63539 | 2125 ft | 151 kts | 31° |
| 2026-04-15 15:37 | 6.20344 | 99.64147 | 2091 ft | 151 kts | 36° |
| 2026-04-15 15:37 | 6.21180 | 99.64782 | 2089 ft | 152 kts | 36° |
| 2026-04-15 15:37 | 6.22039 | 99.65409 | 2088 ft | 152 kts | 34° |
| 2026-04-15 15:38 | 6.22897 | 99.66009 | 2086 ft | 152 kts | 34° |
| 2026-04-15 15:38 | 6.23777 | 99.66608 | 1944 ft | 152 kts | 33° |
| 2026-04-15 15:38 | 6.24644 | 99.67194 | 1782 ft | 149 kts | 33° |
| 2026-04-15 15:38 | 6.25494 | 99.67767 | 1576 ft | 148 kts | 33° |
| 2026-04-15 15:39 | 6.26347 | 99.68344 | 1375 ft | 148 kts | 33° |
| 2026-04-15 15:39 | 6.27199 | 99.68921 | 1175 ft | 147 kts | 33° |
| 2026-04-15 15:39 | 6.28053 | 99.69501 | 975 ft | 147 kts | 33° |
| 2026-04-15 15:39 | 6.28898 | 99.70071 | 778 ft | 147 kts | 33° |
| 2026-04-15 15:40 | 6.29748 | 99.70642 | 582 ft | 147 kts | 34° |
| 2026-04-15 15:40 | 6.30585 | 99.71225 | 387 ft | 146 kts | 35° |
| 2026-04-15 15:40 | 6.31418 | 99.71798 | 193 ft | 146 kts | 33° |
| 2026-04-15 15:40 | 6.32256 | 99.72366 | 33 ft | 141 kts | 34° |
| 2026-04-15 15:41 | 6.32988 | 99.72868 | 22 ft | 111 kts | 34° |
| 2026-04-15 15:41 | 6.33487 | 99.73210 | 28 ft | 61 kts | 34° |
| 2026-04-15 15:41 | 6.33720 | 99.73350 | 30 ft | 23 kts | 355° |
| 2026-04-15 15:41 | 6.33810 | 99.73257 | 31 ft | 14 kts | 304° |
| 2026-04-15 15:42 | 6.33827 | 99.73232 | 32 ft | 0 kts | 304° |
| 2026-04-15 15:42 | 6.33830 | 99.73229 | 32 ft | 1 kts | 304° |
| 2026-04-15 15:43 | 6.33844 | 99.73204 | 32 ft | 6 kts | 289° |
| 2026-04-15 15:43 | 6.33835 | 99.73164 | 32 ft | 4 kts | 213° |
| 2026-04-15 15:43 | 6.33785 | 99.73129 | 31 ft | 11 kts | 214° |
| 2026-04-15 15:43 | 6.33734 | 99.73076 | 30 ft | 8 kts | 269° |
| 2026-04-15 15:44 | 6.33745 | 99.73054 | 30 ft | 2 kts | 328° |
| 2026-04-15 15:44 | 6.33756 | 99.73045 | 30 ft | 2 kts | 316° |
| 2026-04-15 15:44 | 6.33758 | 99.73043 | 30 ft | 0 kts | 307° |
| 2026-04-15 15:44 | 6.33759 | 99.73041 | 30 ft | 0 kts | 307° |
| 2026-04-15 15:45 | 6.33760 | 99.73039 | 30 ft | 0 kts | 307° |
| 2026-04-15 15:45 | 6.33761 | 99.73038 | 30 ft | 0 kts | 307° |
| 2026-04-15 15:45 | 6.33762 | 99.73037 | 30 ft | 0 kts | 307° |
| 2026-04-15 15:45 | 6.33762 | 99.73038 | 30 ft | 0 kts | 307° |
| 2026-04-15 15:46 | 6.33761 | 99.73038 | 30 ft | 0 kts | 307° |